ENSH/SVJ METAR and TAF weather

Enter ICAO airport designator
Station Type Date Time Source
ENSH METAR 2021/03/05 18:50 UTC NOAA

ENSH 051850Z 34002KT 9000 -SN FEW004 SCT010 BKN015 M01/M01 Q1003 RMK WIND 150FT /////KT


Station Type Date Time Source
ENSH Decoded METAR 2021/03/05 18:50 UTC NOAA

Svolvaer / Helle, Norway (ENSH) 68-15N 014-40E 9M
Mar 05, 2021 - 01:50 PM EST / 2021.03.05 1850 UTC
Wind: from the NNW (340 degrees) at 2 MPH (2 KT):0
Visibility: 5 mile(s):0
Sky conditions: mostly cloudy
Weather: light snow
Temperature: 30 F (-1 C)
Dew Point: 30 F (-1 C)
Relative Humidity: 100%
Pressure (altimeter): 29.62 in. Hg (1003 hPa)
ob: ENSH 051850Z 34002KT 9000 -SN FEW004 SCT010 BKN015 M01/M01 Q1003 RMK WIND 150FT /////KT
cycle: 19

Station Type Date Time Source
ENSH TAF UTC NOAA

Error!

Example: see airport list